Harrisburg International Airport (MDT/KMDT)

Map

Destinations

Information

Location
Harrisburg, PA
Local Time
23:34 / 11:34 pm
GMT Time
03:34 / 3:34 am
Gates
Unassigned
No FAA reported delays
METAR KMDT 260256Z 00000KT 10SM FEW075 SCT100 SCT250 17/16 A2949 RMK AO2 SLP985 60000 T01670156 53006
TAF KMDT 260317Z 2603/2624 33005KT P6SM VCSH SCT025 BKN040 FM260500 21003KT 5SM BR VCSH BKN025 OVC040 FM261400 30014KT P6SM BKN050